createdAt,value
2022-11-09T00:01:03.112Z,10.31
2022-11-09T00:03:29.637Z,10.25
2022-11-09T00:06:00.548Z,10.24
2022-11-09T00:08:27.888Z,10.26
2022-11-09T00:10:54.453Z,10.29
2022-11-09T00:13:22.131Z,10.28
2022-11-09T00:15:49.077Z,10.29
2022-11-09T00:18:15.623Z,10.28
2022-11-09T00:20:47.203Z,10.28
2022-11-09T00:23:15.247Z,10.33
2022-11-09T00:25:41.793Z,10.26
2022-11-09T00:28:08.315Z,10.23
2022-11-09T00:30:34.838Z,10.20
2022-11-09T00:33:01.340Z,10.24
2022-11-09T00:35:27.895Z,10.27
2022-11-09T00:37:54.829Z,10.30
2022-11-09T00:40:21.376Z,10.30
2022-11-09T00:42:47.893Z,10.27
2022-11-09T00:45:14.455Z,10.28
2022-11-09T00:47:40.990Z,10.29
2022-11-09T00:50:07.980Z,10.30
2022-11-09T00:52:34.498Z,10.27
2022-11-09T00:55:01.133Z,10.28
2022-11-09T00:57:28.930Z,10.29
2022-11-09T00:59:55.452Z,10.24
2022-11-09T01:02:21.968Z,10.24
2022-11-09T01:04:48.517Z,10.17
2022-11-09T01:07:15.132Z,10.24
2022-11-09T01:09:42.151Z,10.23
2022-11-09T01:12:08.724Z,10.19
2022-11-09T01:14:35.253Z,10.24
2022-11-09T01:17:01.755Z,10.25
2022-11-09T01:19:28.284Z,10.24
2022-11-09T01:21:54.790Z,10.27
2022-11-09T01:24:21.337Z,10.31
2022-11-09T01:26:47.934Z,10.25
2022-11-09T01:29:14.439Z,10.34
2022-11-09T01:31:40.978Z,10.29
2022-11-09T01:34:07.522Z,10.35
2022-11-09T01:36:34.013Z,10.35
2022-11-09T01:39:00.999Z,10.36
2022-11-09T01:41:29.115Z,10.36
2022-11-09T01:44:19.632Z,10.39
2022-11-09T01:46:52.013Z,10.42
2022-11-09T01:49:46.970Z,10.40
2022-11-09T01:52:18.133Z,10.39
2022-11-09T01:54:48.409Z,10.40
2022-11-09T01:57:44.851Z,10.41
2022-11-09T02:00:14.260Z,10.42
2022-11-09T02:03:05.273Z,10.45
2022-11-09T02:05:35.004Z,10.45
2022-11-09T02:08:05.358Z,10.46
2022-11-09T02:10:39.773Z,10.47
2022-11-09T02:13:09.759Z,10.47
2022-11-09T02:15:39.137Z,10.49
2022-11-09T02:18:09.567Z,10.48
2022-11-09T02:20:49.922Z,10.48
2022-11-09T02:23:17.837Z,10.48
2022-11-09T02:25:49.455Z,10.54
2022-11-09T02:28:16.563Z,10.55
2022-11-09T02:30:46.856Z,10.54
2022-11-09T02:33:13.351Z,10.55
2022-11-09T02:35:39.900Z,10.59
2022-11-09T02:38:09.924Z,10.59
2022-11-09T02:40:41.022Z,10.59
2022-11-09T02:43:10.007Z,10.60
2022-11-09T02:45:36.965Z,10.62
2022-11-09T02:48:03.912Z,10.62
2022-11-09T02:50:30.529Z,10.64
2022-11-09T02:52:57.110Z,10.65
2022-11-09T02:55:23.628Z,10.61
2022-11-09T02:57:50.157Z,10.60
2022-11-09T03:00:17.013Z,10.59
2022-11-09T03:02:43.615Z,10.61
2022-11-09T03:05:10.331Z,10.60
2022-11-09T03:07:36.857Z,10.60
2022-11-09T03:10:03.837Z,10.61
2022-11-09T03:12:30.447Z,10.60
2022-11-09T03:15:02.069Z,10.61
2022-11-09T03:17:29.010Z,10.63
2022-11-09T03:19:55.669Z,10.64
2022-11-09T03:22:22.324Z,10.64
2022-11-09T03:24:49.011Z,10.62
2022-11-09T03:27:15.962Z,10.60
2022-11-09T03:29:42.502Z,10.59
2022-11-09T03:32:09.739Z,10.60
2022-11-09T03:34:36.528Z,10.60
2022-11-09T03:37:03.121Z,10.60
2022-11-09T03:39:29.659Z,10.62
2022-11-09T03:41:56.202Z,10.64
2022-11-09T03:44:22.775Z,10.64
2022-11-09T03:46:49.266Z,10.66
2022-11-09T03:49:15.885Z,10.67
2022-11-09T03:51:42.472Z,10.67
2022-11-09T03:54:09.046Z,10.68
2022-11-09T03:56:35.582Z,10.68
2022-11-09T03:59:02.149Z,10.68
2022-11-09T04:01:28.704Z,10.66
2022-11-09T04:03:55.255Z,10.69
2022-11-09T04:06:21.812Z,10.70
2022-11-09T04:08:51.357Z,10.66
2022-11-09T04:11:18.427Z,10.66
2022-11-09T04:13:44.978Z,10.66
2022-11-09T04:16:12.411Z,10.67
2022-11-09T04:18:38.946Z,10.65
2022-11-09T04:21:05.507Z,10.67
2022-11-09T04:23:32.071Z,10.69
2022-11-09T04:25:59.643Z,10.68
2022-11-09T04:28:26.628Z,10.71
2022-11-09T04:30:53.295Z,10.71
2022-11-09T04:33:20.224Z,10.71
2022-11-09T04:35:46.950Z,10.70
2022-11-09T04:38:14.557Z,10.68
2022-11-09T04:40:41.219Z,10.71
2022-11-09T04:43:11.601Z,10.69
2022-11-09T04:45:38.152Z,10.68
2022-11-09T04:48:06.657Z,10.68
2022-11-09T04:50:34.060Z,10.72
2022-11-09T04:53:12.112Z,10.70
2022-11-09T04:55:39.958Z,10.69
2022-11-09T04:58:07.236Z,10.69
2022-11-09T05:00:34.933Z,10.71
2022-11-09T05:03:02.587Z,10.67
2022-11-09T05:05:29.678Z,10.69
2022-11-09T05:07:56.525Z,10.68
2022-11-09T05:10:23.057Z,10.72
2022-11-09T05:12:49.662Z,10.69
2022-11-09T05:15:16.309Z,10.72
2022-11-09T05:17:42.924Z,10.72
2022-11-09T05:20:10.103Z,10.72
2022-11-09T05:22:58.668Z,10.75
2022-11-09T05:25:25.251Z,10.72
2022-11-09T05:27:52.717Z,10.76
2022-11-09T05:30:19.732Z,10.79
2022-11-09T05:32:46.377Z,10.79
2022-11-09T05:35:13.028Z,10.80
2022-11-09T05:37:40.053Z,10.79
2022-11-09T05:40:09.261Z,10.80
2022-11-09T05:42:39.496Z,10.78
2022-11-09T05:45:35.576Z,10.77
2022-11-09T05:47:53.366Z,10.76
2022-11-09T05:50:19.955Z,10.75
2022-11-09T05:52:46.471Z,10.74
2022-11-09T05:55:13.046Z,10.75
2022-11-09T05:57:39.683Z,10.74
2022-11-09T06:00:10.844Z,10.76
2022-11-09T06:02:37.720Z,10.77
2022-11-09T06:05:04.424Z,10.77
2022-11-09T06:07:30.934Z,10.76
2022-11-09T06:09:57.485Z,10.78
2022-11-09T06:12:24.036Z,10.79
2022-11-09T06:14:50.547Z,10.82
2022-11-09T06:17:17.069Z,10.84
2022-11-09T06:19:43.663Z,10.84
2022-11-09T06:22:10.244Z,10.85
2022-11-09T06:24:37.009Z,10.85
2022-11-09T06:27:03.725Z,10.89
2022-11-09T06:29:30.259Z,10.91
2022-11-09T06:31:56.911Z,10.88
2022-11-09T06:34:23.508Z,10.89
2022-11-09T06:36:50.151Z,10.89
2022-11-09T06:39:16.733Z,10.91
2022-11-09T06:41:47.264Z,10.94
2022-11-09T06:44:14.218Z,10.92
2022-11-09T06:46:40.950Z,10.98
2022-11-09T06:49:08.230Z,11.00
2022-11-09T06:51:34.764Z,11.02
2022-11-09T06:54:01.292Z,11.01
2022-11-09T06:56:28.012Z,11.01
2022-11-09T06:58:54.644Z,11.01
2022-11-09T07:01:26.541Z,11.04
2022-11-09T07:03:53.163Z,11.04
2022-11-09T07:06:19.680Z,11.01
2022-11-09T07:08:46.219Z,11.04
2022-11-09T07:11:16.284Z,11.07
2022-11-09T07:13:43.154Z,11.12
2022-11-09T07:16:12.026Z,11.17
2022-11-09T07:18:38.811Z,11.22
2022-11-09T07:21:08.851Z,11.23
2022-11-09T07:23:39.568Z,11.26
2022-11-09T07:26:06.174Z,11.32
2022-11-09T07:28:32.724Z,11.36
2022-11-09T07:30:59.490Z,11.35
2022-11-09T07:33:26.632Z,11.35
2022-11-09T07:35:53.400Z,11.35
2022-11-09T07:38:20.009Z,11.35
2022-11-09T07:40:46.735Z,11.38
2022-11-09T07:43:13.328Z,11.39
2022-11-09T07:45:40.575Z,11.38
2022-11-09T07:48:10.195Z,11.38
2022-11-09T07:50:38.801Z,11.44
2022-11-09T07:53:07.328Z,11.46
2022-11-09T07:55:34.782Z,11.48
2022-11-09T07:58:21.570Z,11.48
2022-11-09T08:00:48.145Z,11.49
2022-11-09T08:03:14.663Z,11.51
2022-11-09T08:05:41.331Z,11.51
2022-11-09T08:08:10.519Z,11.52
2022-11-09T08:10:37.551Z,11.54
2022-11-09T08:13:10.625Z,11.52
2022-11-09T08:15:38.412Z,11.54
2022-11-09T08:18:08.567Z,11.55
2022-11-09T08:20:35.406Z,11.54
2022-11-09T08:23:04.761Z,11.57
2022-11-09T08:25:33.494Z,11.59
2022-11-09T08:28:00.209Z,11.62
2022-11-09T08:30:27.250Z,11.61
2022-11-09T08:32:53.790Z,11.64
2022-11-09T08:35:22.867Z,11.67
2022-11-09T08:37:51.275Z,11.70
2022-11-09T08:40:23.604Z,11.73
2022-11-09T08:42:50.936Z,11.75
2022-11-09T08:45:18.123Z,11.77
2022-11-09T08:47:45.663Z,11.81
2022-11-09T08:50:14.564Z,11.81
2022-11-09T08:52:41.145Z,11.80
2022-11-09T08:55:08.203Z,11.77
2022-11-09T08:57:35.016Z,11.77
2022-11-09T09:00:01.595Z,11.79
2022-11-09T09:02:28.161Z,11.79
2022-11-09T09:04:54.661Z,11.80
2022-11-09T09:07:21.292Z,11.83
2022-11-09T09:09:48.006Z,11.83
2022-11-09T09:12:14.606Z,11.88
2022-11-09T09:14:41.146Z,11.88
2022-11-09T09:17:07.722Z,11.88
2022-11-09T09:19:34.846Z,11.87
2022-11-09T09:22:01.622Z,11.90
2022-11-09T09:24:28.503Z,11.89
2022-11-09T09:26:55.402Z,11.88
2022-11-09T09:29:21.971Z,11.86
2022-11-09T09:31:48.525Z,11.88
2022-11-09T09:34:15.272Z,11.88
2022-11-09T09:36:47.317Z,11.89
2022-11-09T09:39:14.851Z,11.91
2022-11-09T09:41:50.555Z,11.93
2022-11-09T09:44:32.531Z,11.93
2022-11-09T09:47:11.955Z,11.95
2022-11-09T09:49:46.238Z,11.93
2022-11-09T09:52:25.973Z,11.90
2022-11-09T09:55:08.311Z,11.85
2022-11-09T09:57:41.511Z,11.77
2022-11-09T10:00:15.924Z,11.82
2022-11-09T10:02:43.271Z,11.81
2022-11-09T10:05:15.467Z,11.78
2022-11-09T10:08:17.694Z,11.75
2022-11-09T10:10:59.714Z,11.76
2022-11-09T10:13:50.931Z,11.78
2022-11-09T10:16:34.727Z,11.83
2022-11-09T10:19:51.146Z,11.85
2022-11-09T10:22:26.550Z,11.87
2022-11-09T10:25:27.369Z,11.90
2022-11-09T10:27:57.573Z,11.96
2022-11-09T10:30:25.949Z,11.95
2022-11-09T10:32:56.367Z,11.97
2022-11-09T10:35:41.231Z,11.91
2022-11-09T10:38:15.770Z,11.96
2022-11-09T10:41:00.658Z,11.91
2022-11-09T10:43:27.175Z,11.99
2022-11-09T10:46:06.288Z,12.01
2022-11-09T10:48:35.805Z,11.99
2022-11-09T10:51:03.053Z,12.05
2022-11-09T10:53:31.656Z,12.18
2022-11-09T10:56:04.190Z,12.35
2022-11-09T10:58:38.045Z,12.49
2022-11-09T11:01:13.678Z,12.59
2022-11-09T11:03:42.016Z,12.69
2022-11-09T11:06:23.565Z,12.72
2022-11-09T11:09:12.779Z,12.74
2022-11-09T11:11:40.097Z,12.78
2022-11-09T11:14:31.999Z,12.79
2022-11-09T11:16:59.069Z,12.85
2022-11-09T11:19:37.092Z,12.95
2022-11-09T11:22:12.565Z,12.98
2022-11-09T11:24:43.035Z,12.92
2022-11-09T11:27:18.072Z,12.91
2022-11-09T11:29:55.085Z,12.87
2022-11-09T11:32:23.705Z,12.85
2022-11-09T11:35:05.484Z,12.72
2022-11-09T11:38:07.258Z,12.70
2022-11-09T11:40:43.965Z,12.69
2022-11-09T11:43:27.704Z,12.63
2022-11-09T11:46:09.441Z,12.61
2022-11-09T11:48:50.945Z,12.54
2022-11-09T11:51:30.271Z,12.50
2022-11-09T11:54:12.432Z,12.42
2022-11-09T11:56:59.463Z,12.52
2022-11-09T11:59:44.464Z,12.50
2022-11-09T12:02:23.216Z,12.49
2022-11-09T12:05:01.711Z,12.53
2022-11-09T12:07:34.256Z,12.46
2022-11-09T12:10:45.498Z,12.48
2022-11-09T12:14:09.165Z,12.38
2022-11-09T12:17:13.939Z,12.35
2022-11-09T12:20:03.343Z,12.39
2022-11-09T12:22:29.990Z,12.35
2022-11-09T12:25:22.610Z,12.34
2022-11-09T12:28:01.464Z,12.33
2022-11-09T12:31:06.571Z,12.38
2022-11-09T12:33:45.500Z,12.44
2022-11-09T12:36:31.376Z,12.47
2022-11-09T12:39:10.768Z,12.46
2022-11-09T12:41:38.628Z,12.55
2022-11-09T12:44:25.425Z,12.64
2022-11-09T12:47:06.983Z,12.59
2022-11-09T12:49:38.335Z,12.59
2022-11-09T12:52:11.780Z,12.59
2022-11-09T12:54:42.709Z,12.52
2022-11-09T12:57:22.828Z,12.54
2022-11-09T12:59:52.147Z,12.56
2022-11-09T13:02:34.939Z,12.52
2022-11-09T13:05:08.468Z,12.54
2022-11-09T13:07:50.021Z,12.46
2022-11-09T13:10:34.968Z,12.54
2022-11-09T13:13:04.363Z,12.51
2022-11-09T13:15:34.174Z,12.59
2022-11-09T13:18:25.957Z,12.57
2022-11-09T13:20:56.031Z,12.52
2022-11-09T13:26:47.852Z,12.59
2022-11-09T13:29:25.675Z,12.63
2022-11-09T13:32:04.638Z,12.64
2022-11-09T13:34:40.119Z,12.68
2022-11-09T13:37:40.705Z,12.61
2022-11-09T13:40:48.542Z,12.59
2022-11-09T13:43:17.884Z,12.57
2022-11-09T13:45:56.552Z,12.56
2022-11-09T13:48:41.347Z,12.53
2022-11-09T13:51:21.514Z,12.55
2022-11-09T13:53:56.008Z,12.54
2022-11-09T13:56:37.905Z,12.52
2022-11-09T13:59:13.421Z,12.51
2022-11-09T14:01:48.990Z,12.51
2022-11-09T14:04:24.560Z,12.48
2022-11-09T14:07:03.959Z,12.46
2022-11-09T14:10:09.415Z,12.46
2022-11-09T14:12:46.794Z,12.36
2022-11-09T14:15:29.020Z,12.35
2022-11-09T14:18:10.810Z,12.39
2022-11-09T14:21:00.578Z,12.40
2022-11-09T14:23:32.095Z,12.42
2022-11-09T14:25:58.682Z,12.41
2022-11-09T14:28:31.064Z,12.39
2022-11-09T14:30:57.816Z,12.37
2022-11-09T14:33:35.562Z,12.31
2022-11-09T14:36:04.919Z,12.20
2022-11-09T14:38:36.580Z,12.09
2022-11-09T14:41:03.881Z,12.12
2022-11-09T14:43:43.144Z,12.10
2022-11-09T14:46:30.775Z,12.07
2022-11-09T14:49:00.636Z,12.07
2022-11-09T14:51:35.537Z,12.01
2022-11-09T14:54:02.751Z,12.01
2022-11-09T14:56:30.652Z,12.04
2022-11-09T14:58:58.074Z,12.07
2022-11-09T15:01:27.071Z,12.08
2022-11-09T15:04:20.260Z,12.13
2022-11-09T15:06:56.164Z,12.09
2022-11-09T15:09:44.724Z,12.07
2022-11-09T15:12:16.112Z,12.05
2022-11-09T15:14:43.080Z,12.08
2022-11-09T15:17:15.129Z,12.17
2022-11-09T15:19:57.162Z,12.20
2022-11-09T15:22:52.997Z,12.21
2022-11-09T15:25:19.516Z,12.23
2022-11-09T15:27:58.068Z,12.22
2022-11-09T15:30:33.451Z,12.23
2022-11-09T15:33:00.843Z,12.16
2022-11-09T15:35:28.130Z,12.05
2022-11-09T15:37:55.730Z,11.87
2022-11-09T15:40:24.793Z,11.73
2022-11-09T15:42:51.532Z,11.58
2022-11-09T15:45:21.142Z,11.37
2022-11-09T15:47:54.456Z,11.29
2022-11-09T15:50:24.968Z,11.21
2022-11-09T15:52:51.686Z,11.17
2022-11-09T15:55:24.413Z,11.13
2022-11-09T15:57:52.528Z,11.07
2022-11-09T16:00:21.449Z,11.05
2022-11-09T16:02:48.591Z,11.02
2022-11-09T16:05:15.883Z,10.95
2022-11-09T16:07:49.899Z,10.92
2022-11-09T16:10:20.228Z,10.89
2022-11-09T16:12:47.497Z,10.87
2022-11-09T16:15:14.322Z,10.86
2022-11-09T16:17:41.035Z,10.87
2022-11-09T16:20:08.002Z,10.69
2022-11-09T16:22:34.809Z,10.72
2022-11-09T16:25:01.441Z,10.74
2022-11-09T16:27:49.134Z,10.75
2022-11-09T16:30:15.630Z,10.77
2022-11-09T16:32:42.213Z,10.76
2022-11-09T16:35:26.130Z,10.65
2022-11-09T16:37:55.275Z,10.68
2022-11-09T16:40:23.118Z,10.69
2022-11-09T16:42:51.966Z,10.73
2022-11-09T16:45:20.389Z,10.71
2022-11-09T16:47:53.979Z,10.73
2022-11-09T16:50:20.555Z,10.74
2022-11-09T16:52:47.145Z,10.73
2022-11-09T16:55:13.683Z,10.74
2022-11-09T16:57:40.629Z,10.75
2022-11-09T17:00:08.483Z,10.72
2022-11-09T17:02:35.150Z,10.73
2022-11-09T17:05:01.775Z,10.73
2022-11-09T17:07:28.691Z,10.73
2022-11-09T17:09:55.189Z,10.72
2022-11-09T17:12:21.950Z,10.70
2022-11-09T17:14:48.598Z,10.70
2022-11-09T17:17:21.299Z,10.69
2022-11-09T17:19:49.698Z,10.68
2022-11-09T17:22:16.899Z,10.68
2022-11-09T17:24:43.556Z,10.68
2022-11-09T17:27:11.608Z,10.69
2022-11-09T17:29:38.861Z,10.71
2022-11-09T17:32:06.982Z,10.69
2022-11-09T17:34:34.146Z,10.67
2022-11-09T17:37:04.753Z,10.71
2022-11-09T17:39:32.411Z,10.71
2022-11-09T17:41:58.968Z,10.72
2022-11-09T17:44:25.503Z,10.70
2022-11-09T17:46:52.213Z,10.68
2022-11-09T17:49:18.799Z,10.70
2022-11-09T17:51:45.307Z,10.57
2022-11-09T17:54:12.004Z,10.65
2022-11-09T17:56:38.588Z,10.66
2022-11-09T17:59:05.611Z,10.67
2022-11-09T18:01:37.883Z,10.69
2022-11-09T18:04:07.441Z,10.68
2022-11-09T18:06:34.187Z,10.69
2022-11-09T18:09:39.154Z,10.68
2022-11-09T18:11:47.939Z,10.51
2022-11-09T18:14:15.971Z,10.57
2022-11-09T18:16:42.622Z,10.58
2022-11-09T18:19:09.158Z,10.63
2022-11-09T18:21:35.696Z,10.65
2022-11-09T18:24:02.430Z,10.61
2022-11-09T18:26:29.193Z,10.64
2022-11-09T18:28:56.883Z,10.65
2022-11-09T18:31:23.701Z,10.67
2022-11-09T18:33:50.938Z,10.67
2022-11-09T18:36:19.772Z,10.67
2022-11-09T18:38:47.032Z,10.67
2022-11-09T18:41:17.716Z,10.67
2022-11-09T18:43:45.122Z,10.67
2022-11-09T18:46:14.108Z,10.66
2022-11-09T18:48:40.971Z,10.65
2022-11-09T18:51:08.997Z,10.66
2022-11-09T18:53:40.870Z,10.65
2022-11-09T18:56:23.457Z,10.66
2022-11-09T18:58:52.958Z,10.60
2022-11-09T19:01:20.317Z,10.60
2022-11-09T19:03:47.006Z,10.61
2022-11-09T19:06:16.761Z,10.62
2022-11-09T19:09:02.366Z,10.63
2022-11-09T19:11:30.120Z,10.63
2022-11-09T19:13:56.654Z,10.59
2022-11-09T19:16:24.855Z,10.58
2022-11-09T19:18:51.709Z,10.58
2022-11-09T19:21:21.283Z,10.58
2022-11-09T19:23:47.868Z,10.53
2022-11-09T19:26:14.450Z,10.53
2022-11-09T19:28:41.032Z,10.51
2022-11-09T19:31:11.948Z,10.49
2022-11-09T19:33:38.481Z,10.44
2022-11-09T19:36:29.228Z,10.45
2022-11-09T19:38:52.247Z,10.20
2022-11-09T19:41:18.855Z,10.13
2022-11-09T19:43:49.369Z,10.06
2022-11-09T19:46:16.506Z,9.99
2022-11-09T19:48:47.235Z,10.04
2022-11-09T19:51:15.407Z,10.12
2022-11-09T19:53:42.744Z,10.18
2022-11-09T19:56:09.758Z,10.19
2022-11-09T19:58:36.327Z,10.21
2022-11-09T20:01:08.301Z,10.13
2022-11-09T20:03:35.469Z,10.04
2022-11-09T20:06:04.192Z,9.95
2022-11-09T20:08:36.578Z,9.92
2022-11-09T20:11:08.112Z,9.84
2022-11-09T20:13:36.860Z,9.83
2022-11-09T20:16:12.081Z,9.76
2022-11-09T20:18:39.547Z,9.81
2022-11-09T20:21:09.100Z,9.85
2022-11-09T20:23:35.658Z,9.73
2022-11-09T20:26:06.771Z,9.71
2022-11-09T20:28:33.645Z,9.74
2022-11-09T20:31:00.201Z,9.66
2022-11-09T20:33:26.780Z,9.55
2022-11-09T20:35:54.427Z,9.58
2022-11-09T20:38:22.100Z,9.55
2022-11-09T20:40:56.768Z,9.55
2022-11-09T20:43:24.637Z,9.57
2022-11-09T20:45:51.590Z,9.58
2022-11-09T20:48:38.767Z,9.41
2022-11-09T20:51:07.043Z,9.43
2022-11-09T20:53:34.083Z,9.44
2022-11-09T20:56:01.081Z,9.34
2022-11-09T20:58:27.757Z,9.21
2022-11-09T21:01:01.872Z,9.13
2022-11-09T21:03:28.499Z,9.04
2022-11-09T21:05:59.666Z,8.95
2022-11-09T21:08:27.160Z,8.94
2022-11-09T21:10:54.128Z,9.00
2022-11-09T21:13:21.415Z,9.08
2022-11-09T21:15:48.434Z,9.12
2022-11-09T21:18:15.163Z,9.05
2022-11-09T21:20:42.017Z,8.99
2022-11-09T21:23:13.188Z,8.89
2022-11-09T21:26:02.460Z,8.86
2022-11-09T21:28:47.843Z,8.96
2022-11-09T21:31:14.536Z,8.93
2022-11-09T21:33:41.482Z,8.90
2022-11-09T21:36:14.264Z,8.85
2022-11-09T21:38:40.958Z,8.82
2022-11-09T21:41:27.770Z,8.88
2022-11-09T21:43:55.363Z,8.76
2022-11-09T21:46:23.460Z,8.69
2022-11-09T21:48:50.754Z,8.74
2022-11-09T21:51:17.339Z,8.81
2022-11-09T21:53:43.876Z,8.77
2022-11-09T21:56:10.430Z,8.73
2022-11-09T21:58:36.955Z,8.67
2022-11-09T22:01:08.570Z,8.60
2022-11-09T22:03:35.459Z,8.55
2022-11-09T22:06:02.156Z,8.62
2022-11-09T22:08:28.773Z,8.56
2022-11-09T22:11:06.072Z,8.57
2022-11-09T22:13:51.739Z,8.63
2022-11-09T22:16:19.980Z,8.68
2022-11-09T22:19:05.692Z,8.68
2022-11-09T22:21:32.962Z,8.69
2022-11-09T22:24:00.812Z,8.82
2022-11-09T22:26:29.022Z,8.84
2022-11-09T22:28:57.370Z,8.72
2022-11-09T22:31:24.448Z,8.70
2022-11-09T22:33:51.759Z,8.64
2022-11-09T22:36:19.073Z,8.73
2022-11-09T22:38:46.899Z,8.83
2022-11-09T22:41:14.911Z,8.90
2022-11-09T22:43:43.722Z,8.97
2022-11-09T22:46:15.478Z,8.99
2022-11-09T22:48:43.554Z,8.98
2022-11-09T22:51:12.645Z,9.02
2022-11-09T22:53:39.616Z,8.89
2022-11-09T22:56:06.441Z,8.79
2022-11-09T22:58:32.991Z,8.68
2022-11-09T23:01:07.142Z,8.58
2022-11-09T23:03:34.684Z,8.50
2022-11-09T23:06:03.461Z,8.44
2022-11-09T23:08:34.105Z,8.26
2022-11-09T23:11:07.887Z,8.21
2022-11-09T23:13:35.056Z,8.23
2022-11-09T23:16:05.072Z,8.29
2022-11-09T23:18:51.012Z,8.31
2022-11-09T23:21:18.388Z,8.26
2022-11-09T23:23:45.152Z,8.43
2022-11-09T23:26:12.083Z,8.51
2022-11-09T23:28:38.648Z,8.63
2022-11-09T23:31:09.304Z,8.75
2022-11-09T23:33:36.097Z,8.83
2022-11-09T23:36:04.300Z,8.88
2022-11-09T23:38:35.742Z,8.93
2022-11-09T23:41:06.428Z,8.97
2022-11-09T23:43:33.312Z,8.97
2022-11-09T23:46:08.329Z,9.01
2022-11-09T23:48:35.360Z,9.04
2022-11-09T23:51:03.303Z,9.04
2022-11-09T23:53:31.596Z,9.03
2022-11-09T23:56:03.340Z,9.03
2022-11-09T23:58:30.343Z,9.04
